Time;durP1;ratioP1;P1;durP2;ratioP2;P2;SDS_P1;SDS_P2;PMS_P1;PMS_P2;Temp;Humidity;BMP_temperature;BMP_pressure;BME280_temperature;BME280_humidity;BME280_pressure;Samples;Min_cycle;Max_cycle;Signal;HPM_P1;HPM_P2
2022/12/17 13:08:16;;;;;;;17.30;7.30;;;-0.50;99.90;;;;;;6119976;23;20357;-59
2022/12/17 13:10:43;;;;;;;21.33;10.53;;;-0.60;99.90;;;;;;6118812;23;20416;-60
2022/12/17 13:13:17;;;;;;;31.53;11.90;;;-0.50;99.90;;;;;;6118943;23;20407;-62
2022/12/17 13:15:47;;;;;;;27.87;10.30;;;-0.50;99.90;;;;;;6120561;23;20395;-63
2022/12/17 13:18:23;;;;;;;23.60;10.07;;;-0.50;99.90;;;;;;6115065;23;20411;-56
2022/12/17 13:21:03;;;;;;;24.40;13.03;;;-0.50;99.90;;;;;;6120474;23;20406;-64
2022/12/17 13:23:36;;;;;;;19.17;10.20;;;-0.50;99.90;;;;;;6120770;23;20392;-62
2022/12/17 13:26:42;;;;;;;21.10;9.70;;;-0.70;99.90;;;;;;6120333;23;20418;-63
2022/12/17 13:29:25;;;;;;;24.43;11.20;;;-0.70;99.90;;;;;;6050835;23;20427;-65
2022/12/17 13:32:16;;;;;;;22.20;9.70;;;-0.70;99.90;;;;;;6121890;23;20415;-59
2022/12/17 13:35:01;;;;;;;15.57;9.93;;;-0.80;99.90;;;;;;6123586;23;20415;-63
2022/12/17 13:37:35;;;;;;;25.87;10.23;;;-0.80;99.90;;;;;;6120235;23;20965;-66
2022/12/17 13:40:15;;;;;;;28.20;9.77;;;-0.80;99.90;;;;;;6124442;23;20388;-62
2022/12/17 13:42:48;;;;;;;20.83;9.73;;;-0.80;99.90;;;;;;6124417;23;20418;-58
2022/12/17 13:45:18;;;;;;;27.30;11.03;;;-0.80;99.90;;;;;;6120813;23;20399;-59
2022/12/17 13:47:53;;;;;;;20.53;8.93;;;-0.80;99.90;;;;;;6120654;23;20453;-59
2022/12/17 13:50:24;;;;;;;17.37;9.30;;;-0.70;99.90;;;;;;6125265;23;20399;-61
2022/12/17 13:52:51;;;;;;;22.23;11.17;;;-0.70;99.90;;;;;;6124993;23;20388;-61
2022/12/17 13:55:20;;;;;;;21.83;8.80;;;-0.70;99.90;;;;;;6123210;23;20400;-61
2022/12/17 13:57:51;;;;;;;21.63;11.13;;;-0.70;99.90;;;;;;6121958;23;20449;-59
2022/12/17 14:00:24;;;;;;;24.00;8.60;;;-0.60;99.90;;;;;;6131753;23;20438;-62
2022/12/17 14:02:52;;;;;;;21.87;8.83;;;-0.60;99.90;;;;;;6150785;23;20451;-62
2022/12/17 14:05:26;;;;;;;16.03;8.67;;;-0.60;99.90;;;;;;6147743;23;20430;-65
2022/12/17 14:07:54;;;;;;;17.13;9.50;;;-0.70;99.90;;;;;;6148093;23;20383;-65
2022/12/17 14:10:23;;;;;;;26.07;8.90;;;-0.60;99.90;;;;;;6152349;23;20395;-61
2022/12/17 14:12:49;;;;;;;24.53;11.87;;;-0.60;99.90;;;;;;6151109;23;20419;-60
2022/12/17 14:15:24;;;;;;;26.37;12.97;;;-0.60;99.90;;;;;;6151780;23;20558;-61
2022/12/17 14:17:53;;;;;;;29.20;9.60;;;-0.60;99.90;;;;;;6151956;23;20521;-61
2022/12/17 14:20:24;;;;;;;24.60;12.40;;;-0.70;99.90;;;;;;6153820;23;20426;-61
2022/12/17 14:22:54;;;;;;;22.30;12.90;;;-0.70;99.90;;;;;;6150217;23;20396;-60
2022/12/17 14:25:23;;;;;;;24.40;9.57;;;-0.70;99.90;;;;;;6152201;23;20423;-59
2022/12/17 14:30:35;;;;;;;23.63;14.33;;;-0.70;99.90;;;;;;6177816;23;20496;-59
2022/12/17 14:33:02;;;;;;;18.70;9.10;;;-0.60;99.90;;;;;;6183358;23;20370;-57
2022/12/17 14:35:36;;;;;;;18.33;9.93;;;-0.70;99.90;;;;;;6182572;23;20390;-60
2022/12/17 14:38:03;;;;;;;23.07;12.17;;;-0.70;99.90;;;;;;6182255;23;20436;-62
2022/12/17 14:40:30;;;;;;;23.00;11.03;;;-0.80;99.90;;;;;;6183371;23;20398;-50
2022/12/17 14:43:00;;;;;;;28.90;13.17;;;-0.70;99.90;;;;;;6181348;23;20420;-59
2022/12/17 14:45:28;;;;;;;20.53;11.07;;;-0.80;99.90;;;;;;6183734;23;20460;-53
2022/12/17 14:47:58;;;;;;;35.10;11.23;;;-0.70;99.90;;;;;;6183487;23;20401;-56
2022/12/17 14:50:28;;;;;;;20.43;8.53;;;-0.80;99.90;;;;;;6182080;23;20441;-61
2022/12/17 14:53:00;;;;;;;27.07;12.23;;;-0.60;99.90;;;;;;6180539;23;20410;-64
2022/12/17 14:55:36;;;;;;;14.70;9.50;;;-0.80;99.90;;;;;;6181661;23;20425;-56
2022/12/17 14:58:15;;;;;;;25.90;13.53;;;-0.80;99.90;;;;;;6180574;23;20425;-59
2022/12/17 15:00:45;;;;;;;25.53;9.53;;;-0.80;99.90;;;;;;6181283;23;20390;-64
2022/12/17 15:03:18;;;;;;;23.10;10.00;;;-0.80;99.90;;;;;;6180878;23;20397;-59
2022/12/17 15:05:48;;;;;;;21.77;11.20;;;-0.90;99.90;;;;;;6180344;23;20386;-60
2022/12/17 15:08:17;;;;;;;36.23;11.93;;;-1.00;99.90;;;;;;6181113;23;20496;-63
2022/12/17 15:10:44;;;;;;;24.47;12.30;;;-1.00;99.90;;;;;;6180606;23;20417;-63
2022/12/17 15:13:11;;;;;;;19.70;9.63;;;-1.00;99.90;;;;;;6180360;23;20437;-57
2022/12/17 15:15:37;;;;;;;23.10;11.93;;;-1.10;99.90;;;;;;6181391;23;20390;-62
2022/12/17 15:20:52;;;;;;;26.87;9.80;;;-1.10;99.90;;;;;;6178103;23;20451;-61
2022/12/17 15:23:29;;;;;;;20.13;9.17;;;-1.10;99.90;;;;;;6180620;23;20386;-62
2022/12/17 15:25:55;;;;;;;19.23;10.60;;;-1.10;99.90;;;;;;6179853;23;20431;-60
2022/12/17 15:28:23;;;;;;;28.17;10.43;;;-1.10;99.90;;;;;;6179963;23;20392;-63
2022/12/17 15:30:50;;;;;;;19.17;9.57;;;-1.10;99.90;;;;;;6179571;23;20405;-61
2022/12/17 15:33:19;;;;;;;22.43;9.23;;;-1.20;99.90;;;;;;6180217;23;20416;-60
2022/12/17 15:35:46;;;;;;;29.17;9.63;;;-1.20;99.90;;;;;;6180266;23;20401;-61
2022/12/17 15:38:15;;;;;;;27.10;10.50;;;-1.20;99.90;;;;;;6179213;23;20462;-64
2022/12/17 15:40:43;;;;;;;20.23;10.60;;;-1.30;99.90;;;;;;6181078;23;20465;-61
2022/12/17 15:43:12;;;;;;;29.53;9.67;;;-1.30;99.90;;;;;;6180563;23;20410;-58
2022/12/17 15:45:41;;;;;;;29.77;10.27;;;-1.30;99.90;;;;;;6180291;23;20418;-59
2022/12/17 15:48:08;;;;;;;22.40;11.87;;;-1.30;99.90;;;;;;6181328;23;20402;-61
2022/12/17 15:50:36;;;;;;;23.67;10.67;;;-1.30;99.90;;;;;;6180956;23;20441;-60
2022/12/17 15:53:03;;;;;;;30.33;11.80;;;-1.30;99.90;;;;;;6182225;23;20523;-57
2022/12/17 15:55:30;;;;;;;18.73;11.90;;;-1.40;99.90;;;;;;6181432;23;20410;-66
2022/12/17 15:58:01;;;;;;;24.60;12.87;;;-1.30;99.90;;;;;;6180287;23;20437;-63
2022/12/17 16:00:28;;;;;;;19.20;9.00;;;-1.30;99.90;;;;;;6181408;23;20381;-61
2022/12/17 16:02:55;;;;;;;20.57;9.40;;;-1.30;99.90;;;;;;6180760;23;20414;-64
2022/12/17 16:05:22;;;;;;;35.33;12.37;;;-1.20;99.90;;;;;;6179918;23;20397;-61
2022/12/17 16:07:49;;;;;;;20.87;8.50;;;-1.20;99.90;;;;;;6179962;23;20386;-64
2022/12/17 16:10:16;;;;;;;28.43;13.43;;;-1.20;99.90;;;;;;6180056;23;20425;-63
2022/12/17 16:12:44;;;;;;;30.77;13.80;;;-1.20;99.90;;;;;;6180619;23;20405;-63
2022/12/17 16:15:12;;;;;;;20.90;9.70;;;-1.20;99.90;;;;;;6181079;23;20389;-61
2022/12/17 16:17:39;;;;;;;19.17;10.77;;;-1.20;99.90;;;;;;6180917;23;20434;-55
2022/12/17 16:20:08;;;;;;;22.80;11.30;;;-1.30;99.90;;;;;;6180272;23;20456;-53
2022/12/17 16:22:38;;;;;;;19.17;11.13;;;-1.30;99.90;;;;;;6180959;23;20444;-61
2022/12/17 16:25:05;;;;;;;22.30;12.53;;;-1.30;99.90;;;;;;6181601;23;20428;-66
2022/12/17 16:27:32;;;;;;;17.80;11.83;;;-1.30;99.90;;;;;;6181239;23;20481;-63
2022/12/17 16:29:59;;;;;;;21.20;9.83;;;-1.40;99.90;;;;;;6181244;23;20386;-63
2022/12/17 16:32:32;;;;;;;35.90;14.13;;;-1.40;99.90;;;;;;6181821;23;20394;-59
2022/12/17 16:34:59;;;;;;;28.97;13.67;;;-1.30;99.90;;;;;;6181674;23;20378;-59
2022/12/17 16:37:26;;;;;;;19.37;10.73;;;-1.30;99.90;;;;;;6182141;23;20412;-62
2022/12/17 16:39:53;;;;;;;28.10;10.97;;;-1.20;99.90;;;;;;6182302;23;20440;-57
2022/12/17 16:42:19;;;;;;;22.63;12.23;;;-1.20;99.90;;;;;;6182363;23;20390;-52
2022/12/17 16:44:46;;;;;;;24.53;13.90;;;-1.20;99.90;;;;;;6182499;23;20414;-58
2022/12/17 16:47:13;;;;;;;24.07;14.10;;;-1.20;99.90;;;;;;6182887;23;20389;-52
2022/12/17 16:49:43;;;;;;;28.20;11.83;;;-1.20;99.90;;;;;;6182293;23;20401;-63
2022/12/17 16:52:10;;;;;;;39.23;14.67;;;-1.20;99.90;;;;;;6182171;23;20402;-61
2022/12/17 16:54:37;;;;;;;35.97;12.87;;;-1.20;99.90;;;;;;6177310;23;20408;-64
2022/12/17 16:57:04;;;;;;;31.60;12.23;;;-1.20;99.90;;;;;;6179657;23;20455;-59
2022/12/17 16:59:31;;;;;;;29.43;9.50;;;-1.20;99.90;;;;;;6181435;23;20485;-58
2022/12/17 17:01:59;;;;;;;25.57;11.13;;;-1.30;99.90;;;;;;6176865;23;20438;-60
2022/12/17 17:04:26;;;;;;;24.63;9.70;;;-1.30;99.90;;;;;;6184891;23;20433;-61
2022/12/17 17:06:56;;;;;;;29.73;11.87;;;-1.30;99.90;;;;;;6184121;23;20413;-63
2022/12/17 17:09:25;;;;;;;24.93;13.10;;;-1.30;99.90;;;;;;6183672;23;20437;-59
2022/12/17 17:11:55;;;;;;;18.87;11.10;;;-1.40;99.90;;;;;;6183473;23;20441;-60
2022/12/17 17:14:22;;;;;;;24.73;11.20;;;-1.40;99.90;;;;;;6182527;23;20465;-64
2022/12/17 17:16:49;;;;;;;21.57;10.40;;;-1.30;99.90;;;;;;6178419;23;20462;-61
2022/12/17 17:19:17;;;;;;;17.73;8.67;;;-1.40;99.90;;;;;;6183396;23;20425;-64
2022/12/17 17:21:52;;;;;;;32.17;9.80;;;-1.50;99.90;;;;;;6183516;23;20381;-60
2022/12/17 17:24:24;;;;;;;26.23;9.37;;;-1.50;99.90;;;;;;6183264;23;20386;-63
2022/12/17 17:26:53;;;;;;;30.83;10.83;;;-1.40;99.90;;;;;;6183209;23;20378;-62
2022/12/17 17:29:20;;;;;;;48.50;13.17;;;-1.50;99.90;;;;;;6183890;23;20414;-58
2022/12/17 17:31:50;;;;;;;33.00;12.00;;;-1.50;99.90;;;;;;6183280;23;20493;-46
2022/12/17 17:34:17;;;;;;;31.00;8.83;;;-1.50;99.90;;;;;;6183578;23;20461;-47
2022/12/17 17:36:43;;;;;;;23.13;10.37;;;-1.60;99.90;;;;;;6182160;23;20421;-45
2022/12/17 17:39:10;;;;;;;29.70;11.33;;;-1.70;99.90;;;;;;6182692;23;20420;-60
2022/12/17 17:41:39;;;;;;;26.17;10.60;;;-1.60;99.90;;;;;;6183089;23;20393;-57
2022/12/17 17:44:08;;;;;;;28.33;10.73;;;-1.60;99.90;;;;;;6184090;23;20426;-62
2022/12/17 17:46:36;;;;;;;19.30;8.70;;;-1.60;99.90;;;;;;6183278;23;20409;-65
2022/12/17 17:49:05;;;;;;;27.87;13.30;;;-1.60;99.90;;;;;;6181162;23;20434;-57
2022/12/17 17:51:34;;;;;;;29.07;10.77;;;-1.60;99.90;;;;;;6183571;23;20402;-62
2022/12/17 17:54:02;;;;;;;30.37;9.83;;;-1.70;99.90;;;;;;6183335;23;20402;-58
2022/12/17 17:56:31;;;;;;;29.37;9.73;;;-1.70;99.90;;;;;;6182131;23;20424;-61
2022/12/17 17:59:05;;;;;;;31.03;8.67;;;-1.80;99.90;;;;;;6183120;23;20437;-59
2022/12/17 18:01:35;;;;;;;21.80;12.47;;;-1.80;99.90;;;;;;6182433;23;20418;-64
2022/12/17 18:04:02;;;;;;;19.53;10.17;;;-1.80;99.90;;;;;;6183799;23;20406;-65
2022/12/17 18:06:30;;;;;;;34.07;8.37;;;-1.70;99.90;;;;;;6183933;23;20432;-62
2022/12/17 18:08:57;;;;;;;35.40;10.83;;;-1.70;99.90;;;;;;6184049;23;20394;-60
2022/12/17 18:11:26;;;;;;;25.63;10.27;;;-1.70;99.90;;;;;;6182579;23;20378;-64
2022/12/17 18:13:55;;;;;;;35.17;9.90;;;-1.70;99.90;;;;;;6182454;23;20378;-64
2022/12/17 18:16:26;;;;;;;22.97;7.93;;;-1.70;99.90;;;;;;6182649;23;20456;-60
2022/12/17 18:18:55;;;;;;;13.43;8.77;;;-1.70;99.90;;;;;;6183148;23;20437;-62
2022/12/17 18:21:23;;;;;;;16.93;9.87;;;-1.70;99.90;;;;;;6182536;23;20374;-64
2022/12/17 18:23:55;;;;;;;25.00;10.87;;;-1.70;99.90;;;;;;6183677;23;20489;-61
2022/12/17 18:26:23;;;;;;;17.20;10.73;;;-1.70;99.90;;;;;;6177571;23;20424;-62
2022/12/17 18:28:50;;;;;;;16.30;7.30;;;-1.70;99.90;;;;;;6183060;23;20410;-61
2022/12/17 18:31:19;;;;;;;23.50;11.07;;;-1.70;99.90;;;;;;6184104;23;20385;-62
2022/12/17 18:33:50;;;;;;;26.43;10.07;;;-1.80;99.90;;;;;;6183173;23;20385;-62
2022/12/17 18:36:18;;;;;;;24.10;11.27;;;-1.80;99.90;;;;;;6183088;23;20414;-62
2022/12/17 18:38:46;;;;;;;23.40;11.33;;;-1.80;99.90;;;;;;6183147;23;20446;-58
2022/12/17 18:44:01;;;;;;;22.57;12.40;;;-1.80;99.90;;;;;;6179569;23;20365;-55
2022/12/17 18:46:29;;;;;;;26.03;11.80;;;-1.90;99.90;;;;;;6183993;23;20394;-55
2022/12/17 18:48:59;;;;;;;20.37;8.63;;;-1.90;99.90;;;;;;6184193;23;20385;-63
2022/12/17 18:51:26;;;;;;;15.40;8.83;;;-1.90;99.90;;;;;;6183484;23;20410;-64
2022/12/17 18:54:07;;;;;;;24.20;11.40;;;-2.00;99.90;;;;;;6183865;23;20445;-64
2022/12/17 18:56:35;;;;;;;17.10;9.57;;;-2.00;99.90;;;;;;6182021;23;20390;-59
2022/12/17 18:59:04;;;;;;;21.67;9.67;;;-2.00;99.90;;;;;;6183127;23;20469;-58
2022/12/17 19:01:34;;;;;;;24.10;13.60;;;-2.00;99.90;;;;;;6183800;23;20390;-62
2022/12/17 19:04:04;;;;;;;21.57;10.40;;;-2.10;99.90;;;;;;6183720;23;20405;-59
2022/12/17 19:06:36;;;;;;;26.57;8.50;;;-2.10;99.90;;;;;;6183682;23;20374;-56
2022/12/17 19:09:06;;;;;;;24.67;9.60;;;-2.10;99.90;;;;;;6183156;23;20417;-59
2022/12/17 19:11:33;;;;;;;26.47;8.17;;;-2.20;99.90;;;;;;6183080;23;20461;-55
2022/12/17 19:14:01;;;;;;;16.17;7.83;;;-2.20;99.90;;;;;;6183783;23;20400;-61
2022/12/17 19:16:29;;;;;;;20.27;7.30;;;-2.30;99.90;;;;;;6176343;23;20480;-58
2022/12/17 19:18:58;;;;;;;15.23;6.20;;;-2.20;99.90;;;;;;6183182;23;20446;-56
2022/12/17 19:21:27;;;;;;;29.80;10.90;;;-2.20;99.90;;;;;;6182950;23;20457;-64
2022/12/17 19:23:57;;;;;;;16.60;8.60;;;-2.30;99.90;;;;;;6182114;23;20427;-61
2022/12/17 19:26:25;;;;;;;26.83;6.17;;;-2.30;99.90;;;;;;6182717;23;20398;-63
2022/12/17 19:28:54;;;;;;;27.83;9.83;;;-2.30;99.90;;;;;;6174255;23;21214;-63
2022/12/17 19:31:23;;;;;;;17.07;8.10;;;-2.30;99.90;;;;;;6181905;23;20436;-61
2022/12/17 19:33:54;;;;;;;23.33;7.00;;;-2.20;99.90;;;;;;6172860;23;20409;-61
2022/12/17 19:36:22;;;;;;;22.47;10.00;;;-2.30;99.90;;;;;;6181728;23;20392;-56
2022/12/17 19:38:53;;;;;;;20.43;8.13;;;-2.30;99.90;;;;;;6180748;23;20460;-59
2022/12/17 19:41:22;;;;;;;23.77;7.30;;;-2.40;99.90;;;;;;6180574;23;20394;-64
2022/12/17 19:43:54;;;;;;;15.97;5.40;;;-2.40;99.90;;;;;;6180797;23;20405;-61
2022/12/17 19:46:25;;;;;;;18.40;8.30;;;-2.40;99.90;;;;;;6180550;23;20461;-62
2022/12/17 19:48:52;;;;;;;17.80;9.40;;;-2.50;99.90;;;;;;6181035;23;20402;-62
2022/12/17 19:51:21;;;;;;;15.37;7.27;;;-2.50;99.90;;;;;;6180982;23;20413;-63
2022/12/17 19:53:49;;;;;;;14.70;6.07;;;-2.50;99.90;;;;;;6180723;23;20465;-65
2022/12/17 19:56:26;;;;;;;20.20;11.50;;;-2.50;99.90;;;;;;6181280;23;20426;-61
2022/12/17 19:58:55;;;;;;;11.87;6.70;;;-2.50;99.90;;;;;;6181302;23;20430;-60
2022/12/17 20:01:25;;;;;;;14.70;8.47;;;-2.50;99.90;;;;;;6174828;23;20430;-64
2022/12/17 20:03:53;;;;;;;26.93;10.70;;;-2.60;99.90;;;;;;6179428;23;20812;-59
2022/12/17 20:06:23;;;;;;;9.90;5.50;;;-2.60;99.90;;;;;;6173830;23;20406;-63
2022/12/17 20:08:50;;;;;;;8.27;4.17;;;-2.60;99.90;;;;;;6181554;23;20405;-59
2022/12/17 20:11:33;;;;;;;13.83;5.27;;;-2.70;99.90;;;;;;6170184;23;20402;-63
2022/12/17 20:14:04;;;;;;;14.97;7.70;;;-2.80;99.90;;;;;;6182046;23;20398;-64
2022/12/17 20:16:33;;;;;;;30.70;8.40;;;-2.80;99.90;;;;;;6182391;23;20465;-65
2022/12/17 20:19:00;;;;;;;13.93;6.03;;;-2.80;99.90;;;;;;6180892;23;20434;-60
2022/12/17 20:21:28;;;;;;;20.13;8.00;;;-2.80;99.90;;;;;;6177122;23;20392;-62
2022/12/17 20:24:04;;;;;;;14.43;7.00;;;-2.90;99.90;;;;;;6183112;23;20410;-60
2022/12/17 20:26:31;;;;;;;41.13;10.17;;;-2.80;99.90;;;;;;6182855;23;20382;-60
2022/12/17 20:28:59;;;;;;;16.53;8.07;;;-2.80;99.90;;;;;;6182303;23;20490;-65
2022/12/17 20:31:27;;;;;;;21.03;8.33;;;-2.80;99.90;;;;;;6174148;23;20413;-65
2022/12/17 20:34:00;;;;;;;17.50;8.00;;;-2.80;99.90;;;;;;6181492;23;20433;-66
2022/12/17 20:36:27;;;;;;;16.43;7.93;;;-2.70;99.90;;;;;;6181744;23;20386;-60
2022/12/17 20:38:54;;;;;;;26.83;7.40;;;-2.60;99.90;;;;;;6180947;23;20445;-66
2022/12/17 20:41:24;;;;;;;28.30;9.20;;;-2.70;99.90;;;;;;6181579;23;20417;-63
2022/12/17 20:43:54;;;;;;;16.03;7.57;;;-2.70;99.90;;;;;;6180679;23;20440;-64
2022/12/17 20:46:22;;;;;;;16.90;7.13;;;-2.70;99.90;;;;;;6180649;23;20389;-63
2022/12/17 20:48:51;;;;;;;13.30;8.50;;;-2.70;99.90;;;;;;6180405;23;20422;-65
2022/12/17 20:51:21;;;;;;;11.93;6.63;;;-2.80;99.90;;;;;;6180760;23;20394;-65
2022/12/17 20:53:52;;;;;;;15.10;6.90;;;-2.80;99.90;;;;;;6180855;23;20430;-64
2022/12/17 20:56:22;;;;;;;19.83;6.50;;;-2.80;99.90;;;;;;6180564;23;20397;-59
2022/12/17 20:58:53;;;;;;;21.27;9.47;;;-2.80;99.90;;;;;;6179964;23;20398;-65
2022/12/17 21:01:22;;;;;;;18.40;8.30;;;-2.80;99.90;;;;;;6180581;23;20385;-62
2022/12/17 21:03:51;;;;;;;16.73;5.90;;;-2.80;99.90;;;;;;6180843;23;20399;-59
2022/12/17 21:06:20;;;;;;;19.13;8.23;;;-2.80;99.90;;;;;;6180757;23;20374;-59
2022/12/17 21:08:49;;;;;;;9.70;7.60;;;-2.80;99.90;;;;;;6181270;23;20389;-64
2022/12/17 21:11:24;;;;;;;34.73;7.83;;;-2.80;99.90;;;;;;6181611;23;20386;-64
2022/12/17 21:13:52;;;;;;;30.93;9.80;;;-2.90;99.90;;;;;;6181480;23;20412;-62
2022/12/17 21:16:21;;;;;;;26.73;7.87;;;-2.90;99.90;;;;;;6181481;23;20398;-63
2022/12/17 21:18:52;;;;;;;15.17;7.83;;;-3.00;99.90;;;;;;6180739;23;20386;-66
2022/12/17 21:21:22;;;;;;;14.40;8.20;;;-3.10;99.90;;;;;;6174961;23;21059;-67
2022/12/17 21:23:50;;;;;;;10.53;6.27;;;-3.10;99.90;;;;;;6181408;23;20382;-64
2022/12/17 21:26:19;;;;;;;12.83;8.87;;;-3.10;99.90;;;;;;6181624;23;20425;-59
2022/12/17 21:28:48;;;;;;;17.23;7.70;;;-3.00;99.90;;;;;;6181394;23;20406;-64
2022/12/17 21:31:19;;;;;;;15.73;7.93;;;-3.00;99.90;;;;;;6181071;23;20434;-61
2022/12/17 21:33:47;;;;;;;26.13;10.70;;;-3.10;99.90;;;;;;6181016;23;20386;-63
2022/12/17 21:36:19;;;;;;;15.53;6.90;;;-3.00;99.90;;;;;;6181209;23;20426;-66
2022/12/17 21:38:50;;;;;;;17.50;6.23;;;-3.00;99.90;;;;;;6173394;23;20404;-60
2022/12/17 21:41:23;;;;;;;23.53;8.93;;;-3.00;99.90;;;;;;6181249;23;20421;-63
2022/12/17 21:43:54;;;;;;;17.07;8.00;;;-3.00;99.90;;;;;;6181035;23;20386;-62
2022/12/17 21:46:21;;;;;;;16.53;8.27;;;-3.00;99.90;;;;;;6180492;23;20429;-67
2022/12/17 21:48:48;;;;;;;19.73;11.50;;;-2.90;99.90;;;;;;6182141;23;20424;-61
2022/12/17 21:51:27;;;;;;;21.40;6.67;;;-3.00;99.90;;;;;;6182763;23;20452;-66
2022/12/17 21:53:55;;;;;;;22.87;8.63;;;-3.10;99.90;;;;;;6175436;23;20420;-60
2022/12/17 21:56:24;;;;;;;14.47;6.17;;;-3.10;99.90;;;;;;6182080;23;20425;-63
2022/12/17 21:58:56;;;;;;;13.87;7.50;;;-3.10;99.90;;;;;;6182008;23;20406;-64
2022/12/17 22:01:26;;;;;;;12.70;5.60;;;-3.10;99.90;;;;;;6182477;23;20365;-63
2022/12/17 22:03:56;;;;;;;20.77;9.73;;;-3.00;99.90;;;;;;6182652;23;20366;-64
2022/12/17 22:06:29;;;;;;;24.70;6.63;;;-3.10;99.90;;;;;;6182484;23;20405;-62
2022/12/17 22:09:00;;;;;;;11.70;5.13;;;-3.00;99.90;;;;;;6182647;23;20387;-64
2022/12/17 22:11:27;;;;;;;9.63;5.80;;;-3.10;99.90;;;;;;6182438;23;20385;-62
2022/12/17 22:14:05;;;;;;;8.57;3.53;;;-3.10;99.90;;;;;;6182012;23;20416;-62
2022/12/17 22:16:35;;;;;;;15.80;5.40;;;-3.20;99.90;;;;;;6175183;23;20374;-60
2022/12/17 22:19:03;;;;;;;13.93;6.70;;;-3.30;99.90;;;;;;6173337;23;20406;-66
2022/12/17 22:21:34;;;;;;;25.60;8.43;;;-3.20;99.90;;;;;;6182762;23;20414;-61
2022/12/17 22:24:02;;;;;;;12.60;7.70;;;-3.20;99.90;;;;;;6176003;23;20456;-64
2022/12/17 22:26:29;;;;;;;30.17;7.40;;;-3.30;99.90;;;;;;6183657;23;20393;-54
2022/12/17 22:34:49;;;;;;;10.07;4.53;;;-3.20;99.90;;;;;;6183147;23;20400;-63
2022/12/17 22:37:17;;;;;;;9.03;4.10;;;-3.30;99.90;;;;;;6174770;23;20410;-61
2022/12/17 22:39:44;;;;;;;13.43;6.00;;;-3.40;99.90;;;;;;6183527;23;20433;-64
2022/12/17 22:44:55;;;;;;;12.40;5.57;;;-3.30;99.90;;;;;;6183340;23;20420;-62
2022/12/17 22:47:22;;;;;;;12.60;6.60;;;-3.30;99.90;;;;;;6182423;23;20397;-61
2022/12/17 22:49:49;;;;;;;10.60;3.93;;;-3.40;99.90;;;;;;6182647;23;20426;-59
2022/12/17 22:52:21;;;;;;;14.70;5.87;;;-3.30;99.90;;;;;;6183429;23;20389;-58
2022/12/17 22:54:48;;;;;;;17.37;7.63;;;-3.30;99.90;;;;;;6175257;23;20448;-62
2022/12/17 22:57:15;;;;;;;21.13;9.93;;;-3.30;99.90;;;;;;6181120;23;20405;-60
2022/12/17 22:59:42;;;;;;;10.10;6.70;;;-3.20;99.90;;;;;;6176534;23;20456;-63
2022/12/17 23:02:10;;;;;;;12.43;5.40;;;-3.20;99.90;;;;;;6178862;23;20465;-62
2022/12/17 23:04:40;;;;;;;21.53;7.37;;;-3.20;99.90;;;;;;6180709;23;20412;-60
2022/12/17 23:07:06;;;;;;;16.03;9.40;;;-3.20;99.90;;;;;;6181184;23;20394;-61
2022/12/17 23:09:40;;;;;;;22.70;5.70;;;-1.90;99.90;;;;;;6181246;23;20378;-62
2022/12/17 23:14:50;;;;;;;18.97;8.40;;;-3.20;99.90;;;;;;6180515;23;20386;-58
2022/12/17 23:17:17;;;;;;;12.07;5.17;;;-3.30;99.90;;;;;;6182527;23;20400;-59
2022/12/17 23:19:44;;;;;;;21.60;9.63;;;-3.30;99.90;;;;;;6180966;23;20452;-57
2022/12/17 23:22:11;;;;;;;15.20;5.53;;;-3.30;99.90;;;;;;6181071;23;20461;-60
2022/12/17 23:24:39;;;;;;;14.83;7.30;;;-3.40;99.90;;;;;;6181095;23;20385;-62
2022/12/17 23:27:06;;;;;;;27.40;8.37;;;-3.40;99.90;;;;;;6182378;23;20418;-63
2022/12/17 23:29:35;;;;;;;21.90;7.80;;;-3.50;99.90;;;;;;6183010;23;20398;-57
2022/12/17 23:32:09;;;;;;;13.27;6.17;;;-3.40;99.90;;;;;;6183216;23;20449;-55
2022/12/17 23:34:36;;;;;;;17.23;7.10;;;-3.50;99.90;;;;;;6182686;23;20426;-65
2022/12/17 23:37:06;;;;;;;14.47;7.30;;;-3.50;99.90;;;;;;6182389;23;20409;-60
2022/12/17 23:39:33;;;;;;;11.93;6.67;;;-3.40;99.90;;;;;;6180025;23;20405;-62
2022/12/17 23:42:04;;;;;;;19.00;7.73;;;-3.40;99.90;;;;;;6180064;23;20433;-61
2022/12/17 23:44:34;;;;;;;19.67;10.10;;;-3.40;99.90;;;;;;6180671;23;20382;-62
2022/12/17 23:47:02;;;;;;;18.33;4.97;;;-3.40;99.90;;;;;;6179648;23;20398;-62
2022/12/17 23:49:29;;;;;;;7.63;5.67;;;-2.90;99.90;;;;;;6180289;23;20386;-62
2022/12/17 23:51:59;;;;;;;14.17;7.07;;;-3.40;99.90;;;;;;6181095;23;20390;-57
2022/12/17 23:54:26;;;;;;;11.57;5.33;;;-3.40;99.90;;;;;;6175798;23;20405;-61
2022/12/17 23:56:54;;;;;;;15.53;7.00;;;-3.40;99.90;;;;;;6181284;23;20393;-61
2022/12/17 23:59:23;;;;;;;16.30;6.60;;;-3.40;99.90;;;;;;6180993;23;20569;-60
